sensor_id;sensor_type;location;lat;lon;timestamp;P1;durP1;ratioP1;P2;durP2;ratioP2
76626;SDS011;65519;53.230;10.390;2024-03-02T00:01:51;41.88;;;17.15;;
76626;SDS011;65519;53.230;10.390;2024-03-02T00:04:16;41.75;;;16.70;;
76626;SDS011;65519;53.230;10.390;2024-03-02T00:06:42;45.38;;;18.30;;
76626;SDS011;65519;53.230;10.390;2024-03-02T00:09:08;37.30;;;17.13;;
76626;SDS011;65519;53.230;10.390;2024-03-02T00:11:37;37.38;;;16.23;;
76626;SDS011;65519;53.230;10.390;2024-03-02T00:14:03;45.25;;;18.17;;
76626;SDS011;65519;53.230;10.390;2024-03-02T00:16:31;42.80;;;16.48;;
76626;SDS011;65519;53.230;10.390;2024-03-02T00:19:05;40.92;;;15.95;;
76626;SDS011;65519;53.230;10.390;2024-03-02T00:21:32;42.83;;;18.67;;
76626;SDS011;65519;53.230;10.390;2024-03-02T00:23:58;49.22;;;17.52;;
76626;SDS011;65519;53.230;10.390;2024-03-02T00:26:25;40.95;;;16.50;;
76626;SDS011;65519;53.230;10.390;2024-03-02T00:28:52;50.72;;;19.10;;
76626;SDS011;65519;53.230;10.390;2024-03-02T00:31:22;40.75;;;16.63;;
76626;SDS011;65519;53.230;10.390;2024-03-02T00:33:48;46.92;;;18.00;;
76626;SDS011;65519;53.230;10.390;2024-03-02T00:36:15;40.22;;;17.35;;
76626;SDS011;65519;53.230;10.390;2024-03-02T00:38:45;41.60;;;17.13;;
76626;SDS011;65519;53.230;10.390;2024-03-02T00:41:15;41.08;;;17.25;;
76626;SDS011;65519;53.230;10.390;2024-03-02T00:46:40;49.22;;;19.33;;
76626;SDS011;65519;53.230;10.390;2024-03-02T00:51:38;45.95;;;18.25;;
76626;SDS011;65519;53.230;10.390;2024-03-02T00:54:05;45.33;;;18.08;;
76626;SDS011;65519;53.230;10.390;2024-03-02T00:56:31;46.20;;;17.98;;
76626;SDS011;65519;53.230;10.390;2024-03-02T00:58:57;46.28;;;18.27;;
76626;SDS011;65519;53.230;10.390;2024-03-02T01:01:23;48.45;;;19.00;;
76626;SDS011;65519;53.230;10.390;2024-03-02T01:03:49;43.70;;;18.58;;
76626;SDS011;65519;53.230;10.390;2024-03-02T01:06:15;44.72;;;18.95;;
76626;SDS011;65519;53.230;10.390;2024-03-02T01:08:41;41.15;;;16.40;;
76626;SDS011;65519;53.230;10.390;2024-03-02T01:11:07;45.70;;;17.90;;
76626;SDS011;65519;53.230;10.390;2024-03-02T01:13:33;49.50;;;18.48;;
76626;SDS011;65519;53.230;10.390;2024-03-02T01:15:58;44.28;;;18.80;;
76626;SDS011;65519;53.230;10.390;2024-03-02T01:18:25;45.72;;;18.38;;
76626;SDS011;65519;53.230;10.390;2024-03-02T01:20:51;48.28;;;19.65;;
76626;SDS011;65519;53.230;10.390;2024-03-02T01:23:22;49.45;;;18.90;;
76626;SDS011;65519;53.230;10.390;2024-03-02T01:25:49;45.53;;;17.83;;
76626;SDS011;65519;53.230;10.390;2024-03-02T01:28:15;48.45;;;19.25;;
76626;SDS011;65519;53.230;10.390;2024-03-02T01:30:41;47.97;;;18.30;;
76626;SDS011;65519;53.230;10.390;2024-03-02T01:33:07;46.13;;;19.15;;
76626;SDS011;65519;53.230;10.390;2024-03-02T01:35:33;50.13;;;19.45;;
76626;SDS011;65519;53.230;10.390;2024-03-02T01:38:00;50.20;;;20.33;;
76626;SDS011;65519;53.230;10.390;2024-03-02T01:40:25;42.58;;;18.92;;
76626;SDS011;65519;53.230;10.390;2024-03-02T01:42:52;46.80;;;18.20;;
76626;SDS011;65519;53.230;10.390;2024-03-02T01:45:23;46.60;;;20.27;;
76626;SDS011;65519;53.230;10.390;2024-03-02T01:47:49;39.13;;;17.80;;
76626;SDS011;65519;53.230;10.390;2024-03-02T01:50:14;46.08;;;19.05;;
76626;SDS011;65519;53.230;10.390;2024-03-02T01:52:40;47.20;;;20.02;;
76626;SDS011;65519;53.230;10.390;2024-03-02T01:55:06;45.70;;;18.70;;
76626;SDS011;65519;53.230;10.390;2024-03-02T01:57:32;45.55;;;18.83;;
76626;SDS011;65519;53.230;10.390;2024-03-02T01:59:59;49.78;;;18.95;;
76626;SDS011;65519;53.230;10.390;2024-03-02T02:02:25;42.50;;;17.38;;
76626;SDS011;65519;53.230;10.390;2024-03-02T02:04:50;39.33;;;17.38;;
76626;SDS011;65519;53.230;10.390;2024-03-02T02:07:16;50.58;;;19.35;;
76626;SDS011;65519;53.230;10.390;2024-03-02T02:09:41;47.22;;;17.35;;
76626;SDS011;65519;53.230;10.390;2024-03-02T02:12:07;44.75;;;18.67;;
76626;SDS011;65519;53.230;10.390;2024-03-02T02:14:34;45.72;;;18.90;;
76626;SDS011;65519;53.230;10.390;2024-03-02T02:16:59;47.28;;;17.80;;
76626;SDS011;65519;53.230;10.390;2024-03-02T02:19:25;49.13;;;18.77;;
76626;SDS011;65519;53.230;10.390;2024-03-02T02:21:50;49.95;;;18.98;;
76626;SDS011;65519;53.230;10.390;2024-03-02T02:24:16;49.55;;;19.73;;
76626;SDS011;65519;53.230;10.390;2024-03-02T02:26:41;51.00;;;20.55;;
76626;SDS011;65519;53.230;10.390;2024-03-02T02:29:07;45.53;;;18.25;;
76626;SDS011;65519;53.230;10.390;2024-03-02T02:31:39;53.92;;;19.73;;
76626;SDS011;65519;53.230;10.390;2024-03-02T02:34:05;52.35;;;19.30;;
76626;SDS011;65519;53.230;10.390;2024-03-02T02:36:31;46.97;;;18.70;;
76626;SDS011;65519;53.230;10.390;2024-03-02T02:38:58;42.55;;;17.48;;
76626;SDS011;65519;53.230;10.390;2024-03-02T02:41:29;45.47;;;18.33;;
76626;SDS011;65519;53.230;10.390;2024-03-02T02:43:54;49.88;;;19.35;;
76626;SDS011;65519;53.230;10.390;2024-03-02T02:46:20;45.10;;;19.00;;
76626;SDS011;65519;53.230;10.390;2024-03-02T02:48:45;48.70;;;18.58;;
76626;SDS011;65519;53.230;10.390;2024-03-02T02:51:11;43.67;;;17.98;;
76626;SDS011;65519;53.230;10.390;2024-03-02T02:53:36;42.05;;;18.60;;
76626;SDS011;65519;53.230;10.390;2024-03-02T02:56:05;48.03;;;18.17;;
76626;SDS011;65519;53.230;10.390;2024-03-02T02:58:34;46.25;;;18.25;;
76626;SDS011;65519;53.230;10.390;2024-03-02T03:00:59;46.75;;;19.38;;
76626;SDS011;65519;53.230;10.390;2024-03-02T03:03:25;43.30;;;17.95;;
76626;SDS011;65519;53.230;10.390;2024-03-02T03:05:50;42.97;;;19.50;;
76626;SDS011;65519;53.230;10.390;2024-03-02T03:08:16;44.75;;;19.63;;
76626;SDS011;65519;53.230;10.390;2024-03-02T03:10:41;50.80;;;18.58;;
76626;SDS011;65519;53.230;10.390;2024-03-02T03:13:07;47.25;;;18.73;;
76626;SDS011;65519;53.230;10.390;2024-03-02T03:15:35;44.13;;;19.42;;
76626;SDS011;65519;53.230;10.390;2024-03-02T03:18:02;43.90;;;17.55;;
76626;SDS011;65519;53.230;10.390;2024-03-02T03:20:29;46.50;;;18.65;;
76626;SDS011;65519;53.230;10.390;2024-03-02T03:22:55;45.55;;;19.88;;
76626;SDS011;65519;53.230;10.390;2024-03-02T03:25:21;48.35;;;19.50;;
76626;SDS011;65519;53.230;10.390;2024-03-02T03:27:46;48.55;;;18.17;;
76626;SDS011;65519;53.230;10.390;2024-03-02T03:30:12;44.83;;;19.15;;
76626;SDS011;65519;53.230;10.390;2024-03-02T03:32:37;46.10;;;18.85;;
76626;SDS011;65519;53.230;10.390;2024-03-02T03:35:03;45.05;;;18.17;;
76626;SDS011;65519;53.230;10.390;2024-03-02T03:37:29;45.10;;;19.48;;
76626;SDS011;65519;53.230;10.390;2024-03-02T03:40:04;48.70;;;18.67;;
76626;SDS011;65519;53.230;10.390;2024-03-02T03:42:36;41.60;;;18.85;;
76626;SDS011;65519;53.230;10.390;2024-03-02T03:45:02;44.05;;;19.23;;
76626;SDS011;65519;53.230;10.390;2024-03-02T03:47:28;44.17;;;17.55;;
76626;SDS011;65519;53.230;10.390;2024-03-02T03:49:54;41.58;;;18.10;;
76626;SDS011;65519;53.230;10.390;2024-03-02T03:52:19;42.42;;;18.15;;
76626;SDS011;65519;53.230;10.390;2024-03-02T03:54:46;45.03;;;19.23;;
76626;SDS011;65519;53.230;10.390;2024-03-02T03:57:11;42.85;;;17.75;;
76626;SDS011;65519;53.230;10.390;2024-03-02T03:59:37;41.65;;;17.77;;
76626;SDS011;65519;53.230;10.390;2024-03-02T04:02:03;45.67;;;18.20;;
76626;SDS011;65519;53.230;10.390;2024-03-02T04:04:28;46.22;;;17.65;;
76626;SDS011;65519;53.230;10.390;2024-03-02T04:06:54;35.28;;;17.60;;
76626;SDS011;65519;53.230;10.390;2024-03-02T04:09:19;43.83;;;18.67;;
76626;SDS011;65519;53.230;10.390;2024-03-02T04:11:45;43.20;;;17.77;;
76626;SDS011;65519;53.230;10.390;2024-03-02T04:14:11;42.97;;;18.15;;
76626;SDS011;65519;53.230;10.390;2024-03-02T04:16:37;44.53;;;19.55;;
76626;SDS011;65519;53.230;10.390;2024-03-02T04:19:03;43.67;;;18.00;;
76626;SDS011;65519;53.230;10.390;2024-03-02T04:21:29;42.28;;;17.73;;
76626;SDS011;65519;53.230;10.390;2024-03-02T04:23:54;48.78;;;19.75;;
76626;SDS011;65519;53.230;10.390;2024-03-02T04:26:23;48.40;;;20.35;;
76626;SDS011;65519;53.230;10.390;2024-03-02T04:28:50;38.67;;;17.73;;
76626;SDS011;65519;53.230;10.390;2024-03-02T04:31:16;43.05;;;18.23;;
76626;SDS011;65519;53.230;10.390;2024-03-02T04:33:42;40.42;;;17.10;;
76626;SDS011;65519;53.230;10.390;2024-03-02T04:36:07;42.60;;;18.75;;
76626;SDS011;65519;53.230;10.390;2024-03-02T04:38:34;41.80;;;16.95;;
76626;SDS011;65519;53.230;10.390;2024-03-02T04:41:00;37.88;;;16.08;;
76626;SDS011;65519;53.230;10.390;2024-03-02T04:43:26;42.83;;;18.27;;
76626;SDS011;65519;53.230;10.390;2024-03-02T04:45:51;38.72;;;17.48;;
76626;SDS011;65519;53.230;10.390;2024-03-02T04:48:16;48.78;;;17.58;;
76626;SDS011;65519;53.230;10.390;2024-03-02T04:50:42;46.17;;;17.45;;
76626;SDS011;65519;53.230;10.390;2024-03-02T04:53:07;41.90;;;16.45;;
76626;SDS011;65519;53.230;10.390;2024-03-02T04:55:33;44.50;;;17.08;;
76626;SDS011;65519;53.230;10.390;2024-03-02T04:58:04;41.22;;;17.42;;
76626;SDS011;65519;53.230;10.390;2024-03-02T05:00:30;39.10;;;16.95;;
76626;SDS011;65519;53.230;10.390;2024-03-02T05:02:55;43.20;;;18.30;;
76626;SDS011;65519;53.230;10.390;2024-03-02T05:05:21;39.20;;;17.17;;
76626;SDS011;65519;53.230;10.390;2024-03-02T05:07:46;39.95;;;17.00;;
76626;SDS011;65519;53.230;10.390;2024-03-02T05:10:12;40.47;;;17.90;;
76626;SDS011;65519;53.230;10.390;2024-03-02T05:12:38;39.08;;;16.65;;
76626;SDS011;65519;53.230;10.390;2024-03-02T05:15:10;43.47;;;17.75;;
76626;SDS011;65519;53.230;10.390;2024-03-02T05:17:39;40.30;;;16.48;;
76626;SDS011;65519;53.230;10.390;2024-03-02T05:20:06;38.40;;;16.67;;
76626;SDS011;65519;53.230;10.390;2024-03-02T05:22:33;37.17;;;16.13;;
76626;SDS011;65519;53.230;10.390;2024-03-02T05:24:59;37.85;;;16.88;;
76626;SDS011;65519;53.230;10.390;2024-03-02T05:27:26;39.28;;;16.15;;
76626;SDS011;65519;53.230;10.390;2024-03-02T05:29:52;39.15;;;15.75;;
76626;SDS011;65519;53.230;10.390;2024-03-02T05:32:17;44.45;;;16.70;;
76626;SDS011;65519;53.230;10.390;2024-03-02T05:34:43;45.50;;;18.13;;
76626;SDS011;65519;53.230;10.390;2024-03-02T05:37:08;38.13;;;17.63;;
76626;SDS011;65519;53.230;10.390;2024-03-02T05:39:34;40.53;;;16.77;;
76626;SDS011;65519;53.230;10.390;2024-03-02T05:41:59;39.15;;;17.63;;
76626;SDS011;65519;53.230;10.390;2024-03-02T05:44:25;44.13;;;17.70;;
76626;SDS011;65519;53.230;10.390;2024-03-02T05:46:50;41.75;;;17.30;;
76626;SDS011;65519;53.230;10.390;2024-03-02T05:49:15;44.53;;;18.15;;
76626;SDS011;65519;53.230;10.390;2024-03-02T05:51:41;44.88;;;18.40;;
76626;SDS011;65519;53.230;10.390;2024-03-02T05:54:06;48.60;;;19.30;;
76626;SDS011;65519;53.230;10.390;2024-03-02T05:56:32;48.25;;;19.63;;
76626;SDS011;65519;53.230;10.390;2024-03-02T05:58:58;38.55;;;18.35;;
76626;SDS011;65519;53.230;10.390;2024-03-02T06:04:08;38.50;;;15.57;;
76626;SDS011;65519;53.230;10.390;2024-03-02T06:06:36;41.25;;;16.92;;
76626;SDS011;65519;53.230;10.390;2024-03-02T06:09:02;43.65;;;18.65;;
76626;SDS011;65519;53.230;10.390;2024-03-02T06:11:37;46.03;;;18.67;;
76626;SDS011;65519;53.230;10.390;2024-03-02T06:14:04;47.92;;;18.80;;
76626;SDS011;65519;53.230;10.390;2024-03-02T06:16:30;41.80;;;18.23;;
76626;SDS011;65519;53.230;10.390;2024-03-02T06:18:56;39.63;;;18.23;;
76626;SDS011;65519;53.230;10.390;2024-03-02T06:21:25;46.75;;;19.48;;
76626;SDS011;65519;53.230;10.390;2024-03-02T06:23:52;49.10;;;19.00;;
76626;SDS011;65519;53.230;10.390;2024-03-02T06:26:18;50.10;;;20.00;;
76626;SDS011;65519;53.230;10.390;2024-03-02T06:28:44;45.17;;;20.80;;
76626;SDS011;65519;53.230;10.390;2024-03-02T06:31:10;41.70;;;18.65;;
76626;SDS011;65519;53.230;10.390;2024-03-02T06:33:35;47.00;;;21.73;;
76626;SDS011;65519;53.230;10.390;2024-03-02T06:36:01;40.78;;;18.02;;
76626;SDS011;65519;53.230;10.390;2024-03-02T06:38:27;36.38;;;17.38;;
76626;SDS011;65519;53.230;10.390;2024-03-02T06:40:52;44.03;;;19.08;;
76626;SDS011;65519;53.230;10.390;2024-03-02T06:43:18;45.78;;;19.60;;
76626;SDS011;65519;53.230;10.390;2024-03-02T06:45:48;47.47;;;19.95;;
76626;SDS011;65519;53.230;10.390;2024-03-02T06:48:17;46.42;;;18.92;;
76626;SDS011;65519;53.230;10.390;2024-03-02T06:50:48;43.25;;;18.15;;
76626;SDS011;65519;53.230;10.390;2024-03-02T06:53:14;46.17;;;18.33;;
76626;SDS011;65519;53.230;10.390;2024-03-02T06:55:42;48.17;;;20.50;;
76626;SDS011;65519;53.230;10.390;2024-03-02T06:58:14;75.43;;;32.35;;
76626;SDS011;65519;53.230;10.390;2024-03-02T07:00:42;69.68;;;30.48;;
76626;SDS011;65519;53.230;10.390;2024-03-02T07:03:09;53.97;;;22.23;;
76626;SDS011;65519;53.230;10.390;2024-03-02T07:05:35;41.30;;;19.05;;
76626;SDS011;65519;53.230;10.390;2024-03-02T07:08:01;45.13;;;19.67;;
76626;SDS011;65519;53.230;10.390;2024-03-02T07:10:27;48.97;;;20.08;;
76626;SDS011;65519;53.230;10.390;2024-03-02T07:12:53;53.28;;;20.73;;
76626;SDS011;65519;53.230;10.390;2024-03-02T07:15:18;43.58;;;18.88;;
76626;SDS011;65519;53.230;10.390;2024-03-02T07:18:07;43.38;;;17.40;;
76626;SDS011;65519;53.230;10.390;2024-03-02T07:20:32;48.78;;;21.00;;
76626;SDS011;65519;53.230;10.390;2024-03-02T07:22:58;45.13;;;19.15;;
76626;SDS011;65519;53.230;10.390;2024-03-02T07:25:23;45.40;;;18.70;;
76626;SDS011;65519;53.230;10.390;2024-03-02T07:27:49;48.45;;;19.23;;
76626;SDS011;65519;53.230;10.390;2024-03-02T07:30:14;47.67;;;19.17;;
76626;SDS011;65519;53.230;10.390;2024-03-02T07:32:41;46.00;;;18.20;;
76626;SDS011;65519;53.230;10.390;2024-03-02T07:35:11;43.97;;;18.38;;
76626;SDS011;65519;53.230;10.390;2024-03-02T07:37:40;49.97;;;22.73;;
76626;SDS011;65519;53.230;10.390;2024-03-02T07:40:07;46.75;;;19.13;;
76626;SDS011;65519;53.230;10.390;2024-03-02T07:42:42;67.82;;;28.42;;
76626;SDS011;65519;53.230;10.390;2024-03-02T07:45:07;51.53;;;21.73;;
76626;SDS011;65519;53.230;10.390;2024-03-02T07:47:34;44.97;;;18.27;;
76626;SDS011;65519;53.230;10.390;2024-03-02T07:49:59;39.88;;;18.05;;
76626;SDS011;65519;53.230;10.390;2024-03-02T07:52:25;48.45;;;19.73;;
76626;SDS011;65519;53.230;10.390;2024-03-02T07:54:51;45.08;;;18.50;;
76626;SDS011;65519;53.230;10.390;2024-03-02T07:57:16;46.33;;;18.27;;
76626;SDS011;65519;53.230;10.390;2024-03-02T07:59:41;39.40;;;17.67;;
76626;SDS011;65519;53.230;10.390;2024-03-02T08:02:08;43.03;;;18.40;;
76626;SDS011;65519;53.230;10.390;2024-03-02T08:04:33;45.42;;;18.70;;
76626;SDS011;65519;53.230;10.390;2024-03-02T08:06:59;44.35;;;19.42;;
76626;SDS011;65519;53.230;10.390;2024-03-02T08:09:25;44.85;;;18.73;;
76626;SDS011;65519;53.230;10.390;2024-03-02T08:11:51;44.42;;;17.30;;
76626;SDS011;65519;53.230;10.390;2024-03-02T08:14:16;44.95;;;19.30;;
76626;SDS011;65519;53.230;10.390;2024-03-02T08:16:42;47.83;;;19.85;;
76626;SDS011;65519;53.230;10.390;2024-03-02T08:19:07;40.35;;;17.92;;
76626;SDS011;65519;53.230;10.390;2024-03-02T08:21:34;43.20;;;20.23;;
76626;SDS011;65519;53.230;10.390;2024-03-02T08:24:01;46.80;;;18.58;;
76626;SDS011;65519;53.230;10.390;2024-03-02T08:26:27;47.28;;;19.83;;
76626;SDS011;65519;53.230;10.390;2024-03-02T08:28:54;39.85;;;18.35;;
76626;SDS011;65519;53.230;10.390;2024-03-02T08:31:20;40.05;;;17.52;;
76626;SDS011;65519;53.230;10.390;2024-03-02T08:33:46;41.15;;;17.27;;
76626;SDS011;65519;53.230;10.390;2024-03-02T08:36:11;41.92;;;17.38;;
76626;SDS011;65519;53.230;10.390;2024-03-02T08:38:37;40.75;;;16.88;;
76626;SDS011;65519;53.230;10.390;2024-03-02T08:41:03;40.75;;;17.15;;
76626;SDS011;65519;53.230;10.390;2024-03-02T08:43:29;35.55;;;16.85;;
76626;SDS011;65519;53.230;10.390;2024-03-02T08:45:54;33.92;;;15.55;;
76626;SDS011;65519;53.230;10.390;2024-03-02T08:48:20;35.05;;;16.63;;
76626;SDS011;65519;53.230;10.390;2024-03-02T08:50:46;36.33;;;15.35;;
76626;SDS011;65519;53.230;10.390;2024-03-02T08:53:11;40.33;;;17.23;;
76626;SDS011;65519;53.230;10.390;2024-03-02T08:55:37;37.78;;;16.67;;
76626;SDS011;65519;53.230;10.390;2024-03-02T08:58:02;89.60;;;35.40;;
76626;SDS011;65519;53.230;10.390;2024-03-02T09:00:28;36.50;;;16.95;;
76626;SDS011;65519;53.230;10.390;2024-03-02T09:02:54;29.58;;;14.70;;
76626;SDS011;65519;53.230;10.390;2024-03-02T09:05:19;35.33;;;14.88;;
76626;SDS011;65519;53.230;10.390;2024-03-02T09:07:45;30.90;;;14.63;;
76626;SDS011;65519;53.230;10.390;2024-03-02T09:10:10;30.35;;;14.63;;
76626;SDS011;65519;53.230;10.390;2024-03-02T09:12:36;33.22;;;14.95;;
76626;SDS011;65519;53.230;10.390;2024-03-02T09:15:03;32.13;;;15.52;;
76626;SDS011;65519;53.230;10.390;2024-03-02T09:17:29;32.55;;;15.60;;
76626;SDS011;65519;53.230;10.390;2024-03-02T09:19:55;33.20;;;14.30;;
76626;SDS011;65519;53.230;10.390;2024-03-02T09:22:20;28.58;;;13.35;;
76626;SDS011;65519;53.230;10.390;2024-03-02T09:24:46;32.80;;;15.43;;
76626;SDS011;65519;53.230;10.390;2024-03-02T09:27:12;32.05;;;13.35;;
76626;SDS011;65519;53.230;10.390;2024-03-02T09:29:37;29.45;;;14.63;;
76626;SDS011;65519;53.230;10.390;2024-03-02T09:32:03;31.98;;;15.35;;
76626;SDS011;65519;53.230;10.390;2024-03-02T09:34:30;33.60;;;17.38;;
76626;SDS011;65519;53.230;10.390;2024-03-02T09:36:56;31.80;;;14.43;;
76626;SDS011;65519;53.230;10.390;2024-03-02T09:39:22;44.47;;;19.25;;
76626;SDS011;65519;53.230;10.390;2024-03-02T09:41:48;29.85;;;15.30;;
76626;SDS011;65519;53.230;10.390;2024-03-02T09:44:13;21.02;;;12.30;;
76626;SDS011;65519;53.230;10.390;2024-03-02T09:46:39;20.52;;;11.10;;
76626;SDS011;65519;53.230;10.390;2024-03-02T09:49:05;26.98;;;12.32;;
76626;SDS011;65519;53.230;10.390;2024-03-02T09:51:31;22.50;;;11.88;;
76626;SDS011;65519;53.230;10.390;2024-03-02T09:53:56;27.80;;;11.60;;
76626;SDS011;65519;53.230;10.390;2024-03-02T09:56:22;21.83;;;11.90;;
76626;SDS011;65519;53.230;10.390;2024-03-02T09:58:51;24.05;;;10.88;;
76626;SDS011;65519;53.230;10.390;2024-03-02T10:01:16;22.13;;;11.15;;
76626;SDS011;65519;53.230;10.390;2024-03-02T10:03:42;24.35;;;12.25;;
76626;SDS011;65519;53.230;10.390;2024-03-02T10:06:18;23.92;;;11.32;;
76626;SDS011;65519;53.230;10.390;2024-03-02T10:08:47;23.45;;;11.57;;
76626;SDS011;65519;53.230;10.390;2024-03-02T10:16:36;24.05;;;10.70;;
76626;SDS011;65519;53.230;10.390;2024-03-02T10:19:21;23.65;;;11.20;;
76626;SDS011;65519;53.230;10.390;2024-03-02T10:24:14;24.42;;;10.68;;
76626;SDS011;65519;53.230;10.390;2024-03-02T10:26:40;22.08;;;11.02;;
76626;SDS011;65519;53.230;10.390;2024-03-02T10:29:10;23.17;;;11.32;;
76626;SDS011;65519;53.230;10.390;2024-03-02T10:31:36;24.23;;;11.63;;
76626;SDS011;65519;53.230;10.390;2024-03-02T10:34:03;22.00;;;11.27;;
76626;SDS011;65519;53.230;10.390;2024-03-02T10:36:29;28.67;;;13.32;;
76626;SDS011;65519;53.230;10.390;2024-03-02T10:38:56;39.95;;;17.67;;
76626;SDS011;65519;53.230;10.390;2024-03-02T10:41:26;62.78;;;28.20;;
76626;SDS011;65519;53.230;10.390;2024-03-02T10:43:55;29.98;;;14.77;;
76626;SDS011;65519;53.230;10.390;2024-03-02T10:46:27;21.08;;;10.80;;
76626;SDS011;65519;53.230;10.390;2024-03-02T10:48:54;22.08;;;11.00;;
76626;SDS011;65519;53.230;10.390;2024-03-02T10:51:20;24.35;;;11.30;;
76626;SDS011;65519;53.230;10.390;2024-03-02T10:53:46;56.25;;;23.13;;
76626;SDS011;65519;53.230;10.390;2024-03-02T10:56:12;47.08;;;21.50;;
76626;SDS011;65519;53.230;10.390;2024-03-02T10:58:47;23.33;;;10.38;;
76626;SDS011;65519;53.230;10.390;2024-03-02T11:01:16;54.45;;;24.10;;
76626;SDS011;65519;53.230;10.390;2024-03-02T11:03:43;24.85;;;11.55;;
76626;SDS011;65519;53.230;10.390;2024-03-02T11:06:10;21.95;;;10.18;;
76626;SDS011;65519;53.230;10.390;2024-03-02T11:08:37;22.33;;;11.50;;
76626;SDS011;65519;53.230;10.390;2024-03-02T11:11:06;18.40;;;10.02;;
76626;SDS011;65519;53.230;10.390;2024-03-02T11:13:36;19.08;;;10.23;;
76626;SDS011;65519;53.230;10.390;2024-03-02T11:16:09;19.00;;;10.70;;
76626;SDS011;65519;53.230;10.390;2024-03-02T11:18:41;21.63;;;10.50;;
76626;SDS011;65519;53.230;10.390;2024-03-02T11:21:07;21.38;;;10.60;;
76626;SDS011;65519;53.230;10.390;2024-03-02T11:23:33;21.08;;;9.95;;
76626;SDS011;65519;53.230;10.390;2024-03-02T11:28:45;21.17;;;12.18;;
76626;SDS011;65519;53.230;10.390;2024-03-02T11:31:11;29.33;;;13.73;;
76626;SDS011;65519;53.230;10.390;2024-03-02T11:33:36;23.58;;;11.05;;
76626;SDS011;65519;53.230;10.390;2024-03-02T11:36:02;23.48;;;11.98;;
76626;SDS011;65519;53.230;10.390;2024-03-02T11:38:29;22.83;;;12.00;;
76626;SDS011;65519;53.230;10.390;2024-03-02T11:40:59;20.45;;;10.57;;
76626;SDS011;65519;53.230;10.390;2024-03-02T11:43:27;23.75;;;12.52;;
76626;SDS011;65519;53.230;10.390;2024-03-02T11:45:57;24.20;;;11.73;;
76626;SDS011;65519;53.230;10.390;2024-03-02T11:48:24;22.85;;;11.02;;
76626;SDS011;65519;53.230;10.390;2024-03-02T11:50:50;20.23;;;10.13;;
76626;SDS011;65519;53.230;10.390;2024-03-02T11:53:16;21.17;;;10.02;;
76626;SDS011;65519;53.230;10.390;2024-03-02T11:55:43;20.80;;;11.23;;
76626;SDS011;65519;53.230;10.390;2024-03-02T11:58:11;22.83;;;10.75;;
76626;SDS011;65519;53.230;10.390;2024-03-02T12:00:37;21.95;;;11.18;;
76626;SDS011;65519;53.230;10.390;2024-03-02T12:03:04;21.15;;;10.55;;
76626;SDS011;65519;53.230;10.390;2024-03-02T12:05:34;19.52;;;10.52;;
76626;SDS011;65519;53.230;10.390;2024-03-02T12:08:01;21.70;;;10.52;;
76626;SDS011;65519;53.230;10.390;2024-03-02T12:10:29;21.95;;;10.73;;
76626;SDS011;65519;53.230;10.390;2024-03-02T12:15:31;20.92;;;10.07;;
76626;SDS011;65519;53.230;10.390;2024-03-02T12:17:59;21.45;;;10.73;;
76626;SDS011;65519;53.230;10.390;2024-03-02T12:20:26;19.25;;;10.35;;
76626;SDS011;65519;53.230;10.390;2024-03-02T12:22:54;21.50;;;11.30;;
76626;SDS011;65519;53.230;10.390;2024-03-02T12:25:23;24.23;;;12.57;;
76626;SDS011;65519;53.230;10.390;2024-03-02T12:27:50;34.67;;;16.58;;
76626;SDS011;65519;53.230;10.390;2024-03-02T12:30:17;54.25;;;24.73;;
76626;SDS011;65519;53.230;10.390;2024-03-02T12:32:44;27.00;;;13.18;;
76626;SDS011;65519;53.230;10.390;2024-03-02T12:35:10;23.77;;;12.48;;
76626;SDS011;65519;53.230;10.390;2024-03-02T12:37:46;19.45;;;10.55;;
76626;SDS011;65519;53.230;10.390;2024-03-02T12:40:13;17.65;;;8.88;;
76626;SDS011;65519;53.230;10.390;2024-03-02T12:42:40;14.15;;;7.70;;
76626;SDS011;65519;53.230;10.390;2024-03-02T12:45:07;20.65;;;9.80;;
76626;SDS011;65519;53.230;10.390;2024-03-02T12:47:33;16.30;;;7.07;;
76626;SDS011;65519;53.230;10.390;2024-03-02T12:50:00;15.18;;;6.97;;
76626;SDS011;65519;53.230;10.390;2024-03-02T12:52:26;14.57;;;8.00;;
76626;SDS011;65519;53.230;10.390;2024-03-02T12:54:51;14.02;;;6.95;;
76626;SDS011;65519;53.230;10.390;2024-03-02T12:57:20;14.50;;;6.88;;
76626;SDS011;65519;53.230;10.390;2024-03-02T12:59:46;17.65;;;8.10;;
76626;SDS011;65519;53.230;10.390;2024-03-02T13:02:18;16.75;;;7.97;;
76626;SDS011;65519;53.230;10.390;2024-03-02T13:04:44;15.05;;;7.53;;
76626;SDS011;65519;53.230;10.390;2024-03-02T13:07:17;16.85;;;7.93;;
76626;SDS011;65519;53.230;10.390;2024-03-02T13:09:44;13.57;;;7.13;;
76626;SDS011;65519;53.230;10.390;2024-03-02T13:12:11;14.35;;;7.50;;
76626;SDS011;65519;53.230;10.390;2024-03-02T13:14:37;15.73;;;7.43;;
76626;SDS011;65519;53.230;10.390;2024-03-02T13:17:02;15.10;;;7.55;;
76626;SDS011;65519;53.230;10.390;2024-03-02T13:19:30;17.48;;;8.68;;
76626;SDS011;65519;53.230;10.390;2024-03-02T13:21:57;16.67;;;8.35;;
76626;SDS011;65519;53.230;10.390;2024-03-02T13:24:23;16.38;;;7.53;;
76626;SDS011;65519;53.230;10.390;2024-03-02T13:26:54;14.73;;;8.13;;
76626;SDS011;65519;53.230;10.390;2024-03-02T13:29:22;18.63;;;8.25;;
76626;SDS011;65519;53.230;10.390;2024-03-02T13:31:47;17.38;;;8.98;;
76626;SDS011;65519;53.230;10.390;2024-03-02T13:34:13;16.95;;;7.70;;
76626;SDS011;65519;53.230;10.390;2024-03-02T13:36:39;17.10;;;8.48;;
76626;SDS011;65519;53.230;10.390;2024-03-02T13:39:04;17.38;;;8.20;;
76626;SDS011;65519;53.230;10.390;2024-03-02T13:41:36;18.35;;;9.27;;
76626;SDS011;65519;53.230;10.390;2024-03-02T13:44:02;17.45;;;9.20;;
76626;SDS011;65519;53.230;10.390;2024-03-02T13:46:28;20.17;;;10.05;;
76626;SDS011;65519;53.230;10.390;2024-03-02T13:48:54;19.60;;;8.90;;
76626;SDS011;65519;53.230;10.390;2024-03-02T13:51:23;19.55;;;10.15;;
76626;SDS011;65519;53.230;10.390;2024-03-02T13:53:50;15.55;;;8.75;;
76626;SDS011;65519;53.230;10.390;2024-03-02T13:56:16;16.98;;;8.70;;
76626;SDS011;65519;53.230;10.390;2024-03-02T13:58:42;16.50;;;8.15;;
76626;SDS011;65519;53.230;10.390;2024-03-02T14:01:08;18.58;;;8.30;;
76626;SDS011;65519;53.230;10.390;2024-03-02T14:03:34;15.77;;;8.85;;
76626;SDS011;65519;53.230;10.390;2024-03-02T14:06:00;16.38;;;8.63;;
76626;SDS011;65519;53.230;10.390;2024-03-02T14:08:25;15.25;;;8.18;;
76626;SDS011;65519;53.230;10.390;2024-03-02T14:10:51;14.38;;;7.75;;
76626;SDS011;65519;53.230;10.390;2024-03-02T14:13:16;14.52;;;8.35;;
76626;SDS011;65519;53.230;10.390;2024-03-02T14:15:42;18.63;;;7.88;;
76626;SDS011;65519;53.230;10.390;2024-03-02T14:18:07;13.55;;;7.97;;
76626;SDS011;65519;53.230;10.390;2024-03-02T14:20:36;22.08;;;7.90;;
76626;SDS011;65519;53.230;10.390;2024-03-02T14:23:02;17.20;;;8.13;;
76626;SDS011;65519;53.230;10.390;2024-03-02T14:25:28;13.18;;;7.10;;
76626;SDS011;65519;53.230;10.390;2024-03-02T14:27:58;15.18;;;7.60;;
76626;SDS011;65519;53.230;10.390;2024-03-02T14:30:24;12.80;;;7.05;;